sensor_id;sensor_type;location;lat;lon;timestamp;P1;durP1;ratioP1;P2;durP2;ratioP2
23531;SDS011;11943;52.270;20.978;2023-04-01T00:01:32;23.38;;;15.95;;
23531;SDS011;11943;52.270;20.978;2023-04-01T00:03:57;26.70;;;15.65;;
23531;SDS011;11943;52.270;20.978;2023-04-01T00:06:24;25.00;;;15.68;;
23531;SDS011;11943;52.270;20.978;2023-04-01T00:08:49;23.33;;;16.83;;
23531;SDS011;11943;52.270;20.978;2023-04-01T00:11:15;26.48;;;16.38;;
23531;SDS011;11943;52.270;20.978;2023-04-01T00:13:42;20.67;;;15.38;;
23531;SDS011;11943;52.270;20.978;2023-04-01T00:16:08;26.65;;;16.88;;
23531;SDS011;11943;52.270;20.978;2023-04-01T00:18:34;24.00;;;17.80;;
23531;SDS011;11943;52.270;20.978;2023-04-01T00:21:00;26.92;;;17.73;;
23531;SDS011;11943;52.270;20.978;2023-04-01T00:23:26;28.25;;;18.40;;
23531;SDS011;11943;52.270;20.978;2023-04-01T00:25:51;24.10;;;18.50;;
23531;SDS011;11943;52.270;20.978;2023-04-01T00:28:18;29.13;;;19.20;;
23531;SDS011;11943;52.270;20.978;2023-04-01T00:30:45;27.95;;;19.02;;
23531;SDS011;11943;52.270;20.978;2023-04-01T00:33:11;27.17;;;18.88;;
23531;SDS011;11943;52.270;20.978;2023-04-01T00:35:37;29.50;;;18.90;;
23531;SDS011;11943;52.270;20.978;2023-04-01T00:38:04;28.05;;;19.63;;
23531;SDS011;11943;52.270;20.978;2023-04-01T00:43:01;30.40;;;20.05;;
23531;SDS011;11943;52.270;20.978;2023-04-01T00:48:06;31.63;;;21.05;;
23531;SDS011;11943;52.270;20.978;2023-04-01T00:50:35;27.40;;;20.33;;
23531;SDS011;11943;52.270;20.978;2023-04-01T00:53:03;26.05;;;20.45;;
23531;SDS011;11943;52.270;20.978;2023-04-01T00:55:30;28.88;;;20.05;;
23531;SDS011;11943;52.270;20.978;2023-04-01T00:57:58;29.92;;;21.50;;
23531;SDS011;11943;52.270;20.978;2023-04-01T01:00:26;30.13;;;20.05;;
23531;SDS011;11943;52.270;20.978;2023-04-01T01:02:52;32.22;;;21.48;;
23531;SDS011;11943;52.270;20.978;2023-04-01T01:05:18;32.75;;;21.92;;
23531;SDS011;11943;52.270;20.978;2023-04-01T01:07:59;35.15;;;20.63;;
23531;SDS011;11943;52.270;20.978;2023-04-01T01:10:41;32.13;;;20.58;;
23531;SDS011;11943;52.270;20.978;2023-04-01T01:13:22;33.13;;;22.08;;
23531;SDS011;11943;52.270;20.978;2023-04-01T01:16:18;34.85;;;21.52;;
23531;SDS011;11943;52.270;20.978;2023-04-01T01:19:08;30.52;;;22.05;;
23531;SDS011;11943;52.270;20.978;2023-04-01T01:24:49;30.10;;;21.00;;
23531;SDS011;11943;52.270;20.978;2023-04-01T01:27:37;31.90;;;21.88;;
23531;SDS011;11943;52.270;20.978;2023-04-01T01:32:46;29.05;;;21.73;;
23531;SDS011;11943;52.270;20.978;2023-04-01T01:38:01;29.60;;;21.73;;
23531;SDS011;11943;52.270;20.978;2023-04-01T01:40:31;33.33;;;22.30;;
23531;SDS011;11943;52.270;20.978;2023-04-01T01:45:27;29.58;;;20.20;;
23531;SDS011;11943;52.270;20.978;2023-04-01T01:47:56;33.13;;;22.15;;
23531;SDS011;11943;52.270;20.978;2023-04-01T01:50:23;34.83;;;22.45;;
23531;SDS011;11943;52.270;20.978;2023-04-01T01:57:58;34.20;;;23.63;;
23531;SDS011;11943;52.270;20.978;2023-04-01T02:00:33;31.60;;;21.52;;
23531;SDS011;11943;52.270;20.978;2023-04-01T02:03:00;39.72;;;24.02;;
23531;SDS011;11943;52.270;20.978;2023-04-01T02:05:26;35.38;;;22.67;;
23531;SDS011;11943;52.270;20.978;2023-04-01T02:07:57;31.67;;;23.58;;
23531;SDS011;11943;52.270;20.978;2023-04-01T02:10:31;34.08;;;24.38;;
23531;SDS011;11943;52.270;20.978;2023-04-01T02:13:03;35.15;;;24.55;;
23531;SDS011;11943;52.270;20.978;2023-04-01T02:15:37;33.88;;;24.48;;
23531;SDS011;11943;52.270;20.978;2023-04-01T02:18:07;38.45;;;25.63;;
23531;SDS011;11943;52.270;20.978;2023-04-01T02:20:34;37.05;;;25.23;;
23531;SDS011;11943;52.270;20.978;2023-04-01T02:23:02;36.85;;;25.70;;
23531;SDS011;11943;52.270;20.978;2023-04-01T02:25:30;37.67;;;25.05;;
23531;SDS011;11943;52.270;20.978;2023-04-01T02:28:03;38.20;;;26.15;;
23531;SDS011;11943;52.270;20.978;2023-04-01T02:30:31;36.95;;;25.83;;
23531;SDS011;11943;52.270;20.978;2023-04-01T02:33:00;38.10;;;25.88;;
23531;SDS011;11943;52.270;20.978;2023-04-01T02:35:28;39.67;;;26.15;;
23531;SDS011;11943;52.270;20.978;2023-04-01T02:37:54;36.85;;;25.95;;
23531;SDS011;11943;52.270;20.978;2023-04-01T02:40:20;35.25;;;24.55;;
23531;SDS011;11943;52.270;20.978;2023-04-01T02:42:46;38.28;;;25.17;;
23531;SDS011;11943;52.270;20.978;2023-04-01T02:45:12;40.85;;;25.63;;
23531;SDS011;11943;52.270;20.978;2023-04-01T02:47:39;37.30;;;25.92;;
23531;SDS011;11943;52.270;20.978;2023-04-01T02:50:05;38.88;;;27.10;;
23531;SDS011;11943;52.270;20.978;2023-04-01T02:52:31;35.95;;;24.10;;
23531;SDS011;11943;52.270;20.978;2023-04-01T02:54:57;37.58;;;25.67;;
23531;SDS011;11943;52.270;20.978;2023-04-01T02:57:23;37.22;;;24.08;;
23531;SDS011;11943;52.270;20.978;2023-04-01T02:59:49;38.33;;;25.08;;
23531;SDS011;11943;52.270;20.978;2023-04-01T03:02:16;37.83;;;24.45;;
23531;SDS011;11943;52.270;20.978;2023-04-01T03:04:42;35.03;;;23.60;;
23531;SDS011;11943;52.270;20.978;2023-04-01T03:07:08;34.88;;;25.75;;
23531;SDS011;11943;52.270;20.978;2023-04-01T03:09:37;38.03;;;25.50;;
23531;SDS011;11943;52.270;20.978;2023-04-01T03:12:03;37.58;;;24.77;;
23531;SDS011;11943;52.270;20.978;2023-04-01T03:14:29;38.92;;;25.73;;
23531;SDS011;11943;52.270;20.978;2023-04-01T03:16:54;38.58;;;26.63;;
23531;SDS011;11943;52.270;20.978;2023-04-01T03:19:20;41.03;;;25.90;;
23531;SDS011;11943;52.270;20.978;2023-04-01T03:21:46;41.25;;;26.48;;
23531;SDS011;11943;52.270;20.978;2023-04-01T03:24:11;39.80;;;26.83;;
23531;SDS011;11943;52.270;20.978;2023-04-01T03:26:37;43.05;;;28.33;;
23531;SDS011;11943;52.270;20.978;2023-04-01T03:29:03;41.83;;;27.67;;
23531;SDS011;11943;52.270;20.978;2023-04-01T03:31:29;40.83;;;27.57;;
23531;SDS011;11943;52.270;20.978;2023-04-01T03:33:55;39.85;;;25.58;;
23531;SDS011;11943;52.270;20.978;2023-04-01T03:36:21;37.13;;;26.55;;
23531;SDS011;11943;52.270;20.978;2023-04-01T03:38:47;40.72;;;26.23;;
23531;SDS011;11943;52.270;20.978;2023-04-01T03:41:16;36.42;;;24.95;;
23531;SDS011;11943;52.270;20.978;2023-04-01T03:43:43;37.28;;;24.73;;
23531;SDS011;11943;52.270;20.978;2023-04-01T03:46:09;33.42;;;23.05;;
23531;SDS011;11943;52.270;20.978;2023-04-01T03:48:35;34.42;;;23.33;;
23531;SDS011;11943;52.270;20.978;2023-04-01T03:51:01;31.13;;;22.50;;
23531;SDS011;11943;52.270;20.978;2023-04-01T03:53:31;33.72;;;21.92;;
23531;SDS011;11943;52.270;20.978;2023-04-01T03:55:56;29.27;;;21.08;;
23531;SDS011;11943;52.270;20.978;2023-04-01T03:58:22;30.73;;;21.17;;
23531;SDS011;11943;52.270;20.978;2023-04-01T04:00:47;28.40;;;20.40;;
23531;SDS011;11943;52.270;20.978;2023-04-01T04:03:13;31.05;;;21.60;;
23531;SDS011;11943;52.270;20.978;2023-04-01T04:05:45;30.50;;;21.52;;
23531;SDS011;11943;52.270;20.978;2023-04-01T04:08:12;33.45;;;21.02;;
23531;SDS011;11943;52.270;20.978;2023-04-01T04:10:37;27.90;;;20.85;;
23531;SDS011;11943;52.270;20.978;2023-04-01T04:13:03;30.85;;;20.75;;
23531;SDS011;11943;52.270;20.978;2023-04-01T04:15:29;33.70;;;21.52;;
23531;SDS011;11943;52.270;20.978;2023-04-01T04:17:54;31.30;;;22.27;;
23531;SDS011;11943;52.270;20.978;2023-04-01T04:20:20;31.83;;;22.15;;
23531;SDS011;11943;52.270;20.978;2023-04-01T04:22:46;30.80;;;22.30;;
23531;SDS011;11943;52.270;20.978;2023-04-01T04:25:11;33.90;;;21.98;;
23531;SDS011;11943;52.270;20.978;2023-04-01T04:27:37;31.65;;;22.38;;
23531;SDS011;11943;52.270;20.978;2023-04-01T04:30:03;28.65;;;20.35;;
23531;SDS011;11943;52.270;20.978;2023-04-01T04:34:56;29.65;;;19.95;;
23531;SDS011;11943;52.270;20.978;2023-04-01T04:37:21;29.58;;;20.30;;
23531;SDS011;11943;52.270;20.978;2023-04-01T04:39:47;28.73;;;20.38;;
23531;SDS011;11943;52.270;20.978;2023-04-01T04:42:12;28.48;;;20.10;;
23531;SDS011;11943;52.270;20.978;2023-04-01T04:44:38;25.60;;;18.63;;
23531;SDS011;11943;52.270;20.978;2023-04-01T04:47:04;28.55;;;18.85;;
23531;SDS011;11943;52.270;20.978;2023-04-01T04:49:30;24.25;;;16.58;;
23531;SDS011;11943;52.270;20.978;2023-04-01T04:51:55;24.67;;;18.02;;
23531;SDS011;11943;52.270;20.978;2023-04-01T04:54:21;22.30;;;17.85;;
23531;SDS011;11943;52.270;20.978;2023-04-01T04:56:47;25.85;;;17.45;;
23531;SDS011;11943;52.270;20.978;2023-04-01T04:59:12;25.42;;;16.92;;
23531;SDS011;11943;52.270;20.978;2023-04-01T05:01:38;23.48;;;16.23;;
23531;SDS011;11943;52.270;20.978;2023-04-01T05:04:04;21.42;;;15.60;;
23531;SDS011;11943;52.270;20.978;2023-04-01T05:06:30;22.98;;;16.80;;
23531;SDS011;11943;52.270;20.978;2023-04-01T05:08:56;27.23;;;16.73;;
23531;SDS011;11943;52.270;20.978;2023-04-01T05:11:22;22.50;;;16.15;;
23531;SDS011;11943;52.270;20.978;2023-04-01T05:13:47;18.27;;;14.32;;
23531;SDS011;11943;52.270;20.978;2023-04-01T05:16:14;19.63;;;15.77;;
23531;SDS011;11943;52.270;20.978;2023-04-01T05:18:42;20.27;;;14.73;;
23531;SDS011;11943;52.270;20.978;2023-04-01T05:21:09;18.63;;;13.75;;
23531;SDS011;11943;52.270;20.978;2023-04-01T05:23:36;20.88;;;14.82;;
23531;SDS011;11943;52.270;20.978;2023-04-01T05:26:06;20.02;;;14.35;;
23531;SDS011;11943;52.270;20.978;2023-04-01T05:28:34;20.92;;;14.40;;
23531;SDS011;11943;52.270;20.978;2023-04-01T05:31:00;19.13;;;14.40;;
23531;SDS011;11943;52.270;20.978;2023-04-01T05:33:26;18.58;;;12.82;;
23531;SDS011;11943;52.270;20.978;2023-04-01T05:35:52;16.95;;;12.82;;
23531;SDS011;11943;52.270;20.978;2023-04-01T05:38:18;19.73;;;12.98;;
23531;SDS011;11943;52.270;20.978;2023-04-01T05:40:44;16.17;;;12.30;;
23531;SDS011;11943;52.270;20.978;2023-04-01T05:43:10;15.80;;;12.35;;
23531;SDS011;11943;52.270;20.978;2023-04-01T05:45:36;16.95;;;12.65;;
23531;SDS011;11943;52.270;20.978;2023-04-01T05:48:02;16.83;;;12.13;;
23531;SDS011;11943;52.270;20.978;2023-04-01T05:50:28;17.55;;;12.18;;
23531;SDS011;11943;52.270;20.978;2023-04-01T05:52:54;15.90;;;12.32;;
23531;SDS011;11943;52.270;20.978;2023-04-01T05:55:20;13.45;;;11.25;;
23531;SDS011;11943;52.270;20.978;2023-04-01T05:57:46;18.25;;;12.25;;
23531;SDS011;11943;52.270;20.978;2023-04-01T06:00:13;15.60;;;11.52;;
23531;SDS011;11943;52.270;20.978;2023-04-01T06:02:40;15.00;;;11.30;;
23531;SDS011;11943;52.270;20.978;2023-04-01T06:05:14;14.73;;;11.27;;
23531;SDS011;11943;52.270;20.978;2023-04-01T06:07:44;14.05;;;10.70;;
23531;SDS011;11943;52.270;20.978;2023-04-01T06:10:19;12.35;;;9.57;;
23531;SDS011;11943;52.270;20.978;2023-04-01T06:20:48;11.00;;;8.68;;
23531;SDS011;11943;52.270;20.978;2023-04-01T06:48:02;11.15;;;6.60;;
23531;SDS011;11943;52.270;20.978;2023-04-01T06:53:54;6.63;;;4.88;;
23531;SDS011;11943;52.270;20.978;2023-04-01T06:56:28;5.15;;;4.20;;
23531;SDS011;11943;52.270;20.978;2023-04-01T06:58:58;4.90;;;4.18;;
23531;SDS011;11943;52.270;20.978;2023-04-01T07:01:35;6.07;;;4.43;;
23531;SDS011;11943;52.270;20.978;2023-04-01T07:04:06;6.03;;;3.80;;
23531;SDS011;11943;52.270;20.978;2023-04-01T07:06:36;4.97;;;4.10;;
23531;SDS011;11943;52.270;20.978;2023-04-01T07:09:11;4.50;;;3.92;;
23531;SDS011;11943;52.270;20.978;2023-04-01T07:11:41;4.90;;;3.90;;
23531;SDS011;11943;52.270;20.978;2023-04-01T07:14:13;4.53;;;4.07;;
23531;SDS011;11943;52.270;20.978;2023-04-01T07:16:54;4.82;;;4.05;;
23531;SDS011;11943;52.270;20.978;2023-04-01T07:19:26;5.85;;;4.10;;
23531;SDS011;11943;52.270;20.978;2023-04-01T07:24:50;6.95;;;5.13;;
23531;SDS011;11943;52.270;20.978;2023-04-01T07:27:18;7.93;;;6.10;;
23531;SDS011;11943;52.270;20.978;2023-04-01T07:29:43;7.55;;;6.47;;
23531;SDS011;11943;52.270;20.978;2023-04-01T07:37:25;10.60;;;9.02;;
23531;SDS011;11943;52.270;20.978;2023-04-01T07:40:00;9.95;;;8.55;;
23531;SDS011;11943;52.270;20.978;2023-04-01T07:42:33;15.13;;;10.35;;
23531;SDS011;11943;52.270;20.978;2023-04-01T07:48:14;16.63;;;14.27;;
23531;SDS011;11943;52.270;20.978;2023-04-01T07:50:46;19.15;;;15.50;;
23531;SDS011;11943;52.270;20.978;2023-04-01T07:55:58;19.75;;;16.73;;
23531;SDS011;11943;52.270;20.978;2023-04-01T07:58:31;22.73;;;17.70;;
23531;SDS011;11943;52.270;20.978;2023-04-01T08:01:14;20.10;;;16.27;;
23531;SDS011;11943;52.270;20.978;2023-04-01T08:06:59;23.45;;;18.88;;
23531;SDS011;11943;52.270;20.978;2023-04-01T08:15:03;22.65;;;17.45;;
23531;SDS011;11943;52.270;20.978;2023-04-01T08:17:52;21.67;;;16.40;;
23531;SDS011;11943;52.270;20.978;2023-04-01T08:23:06;20.08;;;16.50;;
23531;SDS011;11943;52.270;20.978;2023-04-01T08:25:53;23.10;;;16.85;;
23531;SDS011;11943;52.270;20.978;2023-04-01T08:28:32;21.25;;;15.90;;
23531;SDS011;11943;52.270;20.978;2023-04-01T08:31:06;19.52;;;16.17;;
23531;SDS011;11943;52.270;20.978;2023-04-01T08:33:37;19.80;;;16.02;;
23531;SDS011;11943;52.270;20.978;2023-04-01T08:39:03;16.27;;;13.23;;
23531;SDS011;11943;52.270;20.978;2023-04-01T08:47:52;11.07;;;9.10;;
23531;SDS011;11943;52.270;20.978;2023-04-01T08:56:32;10.25;;;7.03;;
23531;SDS011;11943;52.270;20.978;2023-04-01T09:09:53;9.10;;;7.63;;
23531;SDS011;11943;52.270;20.978;2023-04-01T09:23:47;10.10;;;7.43;;
23531;SDS011;11943;52.270;20.978;2023-04-01T09:29:29;11.23;;;8.88;;
23531;SDS011;11943;52.270;20.978;2023-04-01T09:32:16;11.65;;;8.18;;
23531;SDS011;11943;52.270;20.978;2023-04-01T09:34:55;10.15;;;7.40;;
23531;SDS011;11943;52.270;20.978;2023-04-01T09:40:33;6.85;;;5.97;;
23531;SDS011;11943;52.270;20.978;2023-04-01T09:43:16;9.13;;;6.22;;
23531;SDS011;11943;52.270;20.978;2023-04-01T09:45:51;10.45;;;6.10;;
23531;SDS011;11943;52.270;20.978;2023-04-01T09:48:36;7.47;;;6.32;;
23531;SDS011;11943;52.270;20.978;2023-04-01T09:59:24;9.30;;;6.55;;
23531;SDS011;11943;52.270;20.978;2023-04-01T10:13:10;9.45;;;6.53;;
23531;SDS011;11943;52.270;20.978;2023-04-01T10:26:31;6.13;;;4.95;;
23531;SDS011;11943;52.270;20.978;2023-04-01T10:36:57;5.78;;;4.43;;
23531;SDS011;11943;52.270;20.978;2023-04-01T10:48:18;4.88;;;4.22;;
23531;SDS011;11943;52.270;20.978;2023-04-01T10:51:04;6.20;;;5.15;;
23531;SDS011;11943;52.270;20.978;2023-04-01T10:53:46;8.13;;;5.22;;
23531;SDS011;11943;52.270;20.978;2023-04-01T10:56:34;5.60;;;4.60;;
23531;SDS011;11943;52.270;20.978;2023-04-01T11:16:47;7.15;;;6.20;;
23531;SDS011;11943;52.270;20.978;2023-04-01T11:25:11;7.95;;;7.13;;
23531;SDS011;11943;52.270;20.978;2023-04-01T11:30:39;8.65;;;7.60;;
23531;SDS011;11943;52.270;20.978;2023-04-01T11:35:57;11.35;;;7.20;;
23531;SDS011;11943;52.270;20.978;2023-04-01T11:41:43;4.93;;;4.25;;
23531;SDS011;11943;52.270;20.978;2023-04-01T11:44:20;3.35;;;3.05;;
23531;SDS011;11943;52.270;20.978;2023-04-01T11:50:13;3.88;;;3.47;;
23531;SDS011;11943;52.270;20.978;2023-04-01T12:11:50;5.60;;;2.42;;
23531;SDS011;11943;52.270;20.978;2023-04-01T12:19:40;1.60;;;1.50;;
23531;SDS011;11943;52.270;20.978;2023-04-01T12:25:35;1.60;;;1.50;;
23531;SDS011;11943;52.270;20.978;2023-04-01T12:42:17;2.58;;;1.90;;
23531;SDS011;11943;52.270;20.978;2023-04-01T12:53:21;2.15;;;1.70;;
23531;SDS011;11943;52.270;20.978;2023-04-01T12:55:59;2.72;;;1.50;;
23531;SDS011;11943;52.270;20.978;2023-04-01T12:58:38;2.53;;;2.00;;
23531;SDS011;11943;52.270;20.978;2023-04-01T13:04:13;4.07;;;2.63;;
23531;SDS011;11943;52.270;20.978;2023-04-01T13:07:36;2.55;;;2.30;;
23531;SDS011;11943;52.270;20.978;2023-04-01T13:12:50;2.80;;;2.13;;
23531;SDS011;11943;52.270;20.978;2023-04-01T13:23:36;3.75;;;2.72;;
23531;SDS011;11943;52.270;20.978;2023-04-01T13:39:35;3.28;;;2.97;;
23531;SDS011;11943;52.270;20.978;2023-04-01T14:30:59;1.70;;;1.58;;
23531;SDS011;11943;52.270;20.978;2023-04-01T14:48:17;8.32;;;2.72;;
23531;SDS011;11943;52.270;20.978;2023-04-01T14:51:10;3.60;;;2.80;;
23531;SDS011;11943;52.270;20.978;2023-04-01T14:53:44;4.50;;;2.85;;
23531;SDS011;11943;52.270;20.978;2023-04-01T14:56:41;3.33;;;3.03;;
23531;SDS011;11943;52.270;20.978;2023-04-01T15:07:26;3.55;;;3.25;;
23531;SDS011;11943;52.270;20.978;2023-04-01T15:13:24;4.43;;;3.10;;
23531;SDS011;11943;52.270;20.978;2023-04-01T15:24:15;5.72;;;3.63;;
23531;SDS011;11943;52.270;20.978;2023-04-01T15:29:47;4.53;;;4.07;;
23531;SDS011;11943;52.270;20.978;2023-04-01T15:32:45;4.38;;;3.70;;
23531;SDS011;11943;52.270;20.978;2023-04-01T15:43:50;3.60;;;3.30;;
23531;SDS011;11943;52.270;20.978;2023-04-01T15:54:27;3.38;;;3.08;;
23531;SDS011;11943;52.270;20.978;2023-04-01T15:57:28;4.03;;;3.00;;
23531;SDS011;11943;52.270;20.978;2023-04-01T16:00:25;5.93;;;3.63;;
23531;SDS011;11943;52.270;20.978;2023-04-01T16:05:30;3.65;;;3.13;;
23531;SDS011;11943;52.270;20.978;2023-04-01T16:13:43;5.35;;;3.53;;
23531;SDS011;11943;52.270;20.978;2023-04-01T16:19:27;4.53;;;3.08;;
23531;SDS011;11943;52.270;20.978;2023-04-01T16:28:23;3.38;;;2.53;;
23531;SDS011;11943;52.270;20.978;2023-04-01T16:31:15;3.65;;;2.60;;
23531;SDS011;11943;52.270;20.978;2023-04-01T16:34:10;2.63;;;2.40;;
23531;SDS011;11943;52.270;20.978;2023-04-01T16:37:09;3.67;;;2.72;;
23531;SDS011;11943;52.270;20.978;2023-04-01T16:44:47;2.90;;;2.45;;
23531;SDS011;11943;52.270;20.978;2023-04-01T16:47:30;5.38;;;2.83;;
23531;SDS011;11943;52.270;20.978;2023-04-01T16:50:23;3.58;;;2.50;;
23531;SDS011;11943;52.270;20.978;2023-04-01T16:55:35;2.67;;;2.47;;
23531;SDS011;11943;52.270;20.978;2023-04-01T16:58:35;2.92;;;2.60;;
23531;SDS011;11943;52.270;20.978;2023-04-01T17:01:26;3.88;;;2.90;;
23531;SDS011;11943;52.270;20.978;2023-04-01T17:03:58;2.45;;;2.20;;
23531;SDS011;11943;52.270;20.978;2023-04-01T17:06:37;3.37;;;2.80;;
23531;SDS011;11943;52.270;20.978;2023-04-01T17:14:33;4.65;;;2.95;;
23531;SDS011;11943;52.270;20.978;2023-04-01T17:17:17;2.92;;;2.63;;
23531;SDS011;11943;52.270;20.978;2023-04-01T17:23:00;3.50;;;2.97;;
23531;SDS011;11943;52.270;20.978;2023-04-01T17:31:05;8.73;;;5.97;;
23531;SDS011;11943;52.270;20.978;2023-04-01T17:58:17;9.68;;;7.28;;
23531;SDS011;11943;52.270;20.978;2023-04-01T18:00:58;9.63;;;7.38;;
23531;SDS011;11943;52.270;20.978;2023-04-01T18:06:19;9.43;;;7.53;;
23531;SDS011;11943;52.270;20.978;2023-04-01T18:14:13;10.82;;;7.80;;
23531;SDS011;11943;52.270;20.978;2023-04-01T18:22:48;10.68;;;8.00;;
23531;SDS011;11943;52.270;20.978;2023-04-01T18:25:46;12.55;;;8.70;;
23531;SDS011;11943;52.270;20.978;2023-04-01T18:28:18;10.75;;;8.77;;
23531;SDS011;11943;52.270;20.978;2023-04-01T18:36:33;11.77;;;8.73;;
23531;SDS011;11943;52.270;20.978;2023-04-01T18:41:47;14.70;;;10.52;;
23531;SDS011;11943;52.270;20.978;2023-04-01T18:53:14;16.08;;;10.82;;
23531;SDS011;11943;52.270;20.978;2023-04-01T19:09:17;13.00;;;10.27;;
23531;SDS011;11943;52.270;20.978;2023-04-01T19:17:02;12.73;;;10.88;;
23531;SDS011;11943;52.270;20.978;2023-04-01T19:19:50;11.73;;;10.30;;
23531;SDS011;11943;52.270;20.978;2023-04-01T19:28:20;10.68;;;8.80;;
23531;SDS011;11943;52.270;20.978;2023-04-01T19:36:59;10.48;;;8.10;;
23531;SDS011;11943;52.270;20.978;2023-04-01T19:42:30;13.30;;;10.05;;
23531;SDS011;11943;52.270;20.978;2023-04-01T19:53:20;13.38;;;10.65;;
23531;SDS011;11943;52.270;20.978;2023-04-01T19:56:02;10.95;;;9.65;;
23531;SDS011;11943;52.270;20.978;2023-04-01T20:01:07;11.88;;;9.07;;
23531;SDS011;11943;52.270;20.978;2023-04-01T20:03:42;11.10;;;8.57;;
23531;SDS011;11943;52.270;20.978;2023-04-01T20:14:48;10.25;;;8.55;;
23531;SDS011;11943;52.270;20.978;2023-04-01T20:18:01;11.10;;;8.23;;
23531;SDS011;11943;52.270;20.978;2023-04-01T20:25:27;9.70;;;8.13;;
23531;SDS011;11943;52.270;20.978;2023-04-01T20:28:44;8.80;;;7.15;;
23531;SDS011;11943;52.270;20.978;2023-04-01T20:42:51;10.00;;;7.70;;
23531;SDS011;11943;52.270;20.978;2023-04-01T20:45:10;9.13;;;7.60;;
23531;SDS011;11943;52.270;20.978;2023-04-01T20:47:55;9.40;;;7.30;;
23531;SDS011;11943;52.270;20.978;2023-04-01T20:50:52;10.10;;;8.23;;
23531;SDS011;11943;52.270;20.978;2023-04-01T20:56:17;8.82;;;7.43;;
23531;SDS011;11943;52.270;20.978;2023-04-01T20:58:52;12.82;;;7.15;;
23531;SDS011;11943;52.270;20.978;2023-04-01T21:06:39;10.65;;;7.43;;
23531;SDS011;11943;52.270;20.978;2023-04-01T21:23:28;8.00;;;6.35;;
23531;SDS011;11943;52.270;20.978;2023-04-01T21:34:58;8.82;;;5.80;;
23531;SDS011;11943;52.270;20.978;2023-04-01T21:37:36;7.75;;;5.82;;
23531;SDS011;11943;52.270;20.978;2023-04-01T21:54:22;9.98;;;6.40;;
23531;SDS011;11943;52.270;20.978;2023-04-01T22:13:06;7.85;;;6.10;;
23531;SDS011;11943;52.270;20.978;2023-04-01T22:21:29;7.65;;;6.05;;
23531;SDS011;11943;52.270;20.978;2023-04-01T22:24:22;7.47;;;5.72;;
23531;SDS011;11943;52.270;20.978;2023-04-01T22:27:00;9.15;;;5.18;;
23531;SDS011;11943;52.270;20.978;2023-04-01T22:29:33;6.60;;;5.22;;
23531;SDS011;11943;52.270;20.978;2023-04-01T22:32:25;9.23;;;5.80;;
23531;SDS011;11943;52.270;20.978;2023-04-01T22:40:47;9.25;;;6.25;;
23531;SDS011;11943;52.270;20.978;2023-04-01T22:46:03;7.18;;;5.80;;
23531;SDS011;11943;52.270;20.978;2023-04-01T22:54:31;9.57;;;6.60;;
23531;SDS011;11943;52.270;20.978;2023-04-01T22:57:11;9.38;;;7.00;;
23531;SDS011;11943;52.270;20.978;2023-04-01T22:59:40;8.90;;;6.82;;
23531;SDS011;11943;52.270;20.978;2023-04-01T23:02:21;10.55;;;6.30;;
23531;SDS011;11943;52.270;20.978;2023-04-01T23:05:02;9.30;;;6.80;;
23531;SDS011;11943;52.270;20.978;2023-04-01T23:07:36;7.65;;;5.75;;
23531;SDS011;11943;52.270;20.978;2023-04-01T23:12:59;8.60;;;6.22;;
23531;SDS011;11943;52.270;20.978;2023-04-01T23:15:27;8.38;;;6.30;;
23531;SDS011;11943;52.270;20.978;2023-04-01T23:28:59;8.10;;;5.80;;
23531;SDS011;11943;52.270;20.978;2023-04-01T23:33:56;7.50;;;6.13;;
23531;SDS011;11943;52.270;20.978;2023-04-01T23:36:25;7.90;;;5.60;;
23531;SDS011;11943;52.270;20.978;2023-04-01T23:38:52;7.10;;;5.45;;
23531;SDS011;11943;52.270;20.978;2023-04-01T23:41:23;8.55;;;6.07;;
23531;SDS011;11943;52.270;20.978;2023-04-01T23:43:55;8.18;;;5.65;;
23531;SDS011;11943;52.270;20.978;2023-04-01T23:46:25;7.72;;;5.88;;
23531;SDS011;11943;52.270;20.978;2023-04-01T23:48:51;6.90;;;5.55;;
23531;SDS011;11943;52.270;20.978;2023-04-01T23:53:59;8.30;;;5.78;;
23531;SDS011;11943;52.270;20.978;2023-04-01T23:56:39;7.72;;;5.65;;
23531;SDS011;11943;52.270;20.978;2023-04-01T23:59:14;8.90;;;6.50;;
